createdAt,value
2018-02-20T00:01:16.959Z,61.70
2018-02-20T00:03:35.699Z,82.80
2018-02-20T00:08:36.139Z,60.77
2018-02-20T00:15:35.675Z,69.70
2018-02-20T00:22:32.045Z,71.83
2018-02-20T00:29:38.849Z,68.27
2018-02-20T00:31:40.497Z,62.90
2018-02-20T00:33:41.550Z,70.60
2018-02-20T00:38:10.570Z,68.90
2018-02-20T00:48:34.163Z,70.10
2018-02-20T00:50:35.310Z,65.00
2018-02-20T01:00:15.278Z,63.20
2018-02-20T01:02:16.278Z,66.25
2018-02-20T01:11:49.320Z,73.80
2018-02-20T01:13:50.365Z,69.87
2018-02-20T01:15:51.459Z,63.30
2018-02-20T01:17:52.581Z,73.40
2018-02-20T01:19:53.678Z,67.27
2018-02-20T01:21:54.631Z,68.60
2018-02-20T01:26:27.530Z,63.75
2018-02-20T01:30:57.452Z,67.65
2018-02-20T01:32:58.713Z,66.82
2018-02-20T01:37:29.022Z,72.28
2018-02-20T01:39:30.286Z,67.93
2018-02-20T01:46:25.480Z,67.25
2018-02-20T01:48:26.528Z,67.93
2018-02-20T01:50:27.522Z,87.27
2018-02-20T01:52:28.524Z,71.40
2018-02-20T01:54:29.512Z,63.10
2018-02-20T01:58:58.082Z,82.50
2018-02-20T02:00:59.093Z,76.87
2018-02-20T02:03:03.981Z,64.28
2018-02-20T02:05:05.059Z,62.97
2018-02-20T02:07:27.072Z,61.75
2018-02-20T02:09:28.090Z,65.62
2018-02-20T02:11:29.044Z,63.40
2018-02-20T02:13:36.674Z,62.07
2018-02-20T02:15:48.995Z,83.90
2018-02-20T02:17:49.969Z,67.77
2018-02-20T02:19:51.026Z,80.60
2018-02-20T02:21:52.093Z,69.10
2018-02-20T02:23:56.625Z,73.50
2018-02-20T02:26:05.325Z,71.20
2018-02-20T02:28:26.356Z,69.70
2018-02-20T02:30:35.790Z,65.10
2018-02-20T02:35:27.065Z,64.05
2018-02-20T02:37:28.038Z,73.18
2018-02-20T02:42:07.401Z,70.43
2018-02-20T02:52:05.999Z,83.82
2018-02-20T02:59:12.922Z,78.57
2018-02-20T03:03:41.448Z,74.47
2018-02-20T03:05:42.451Z,86.43
2018-02-20T03:08:07.728Z,87.32
2018-02-20T03:10:08.934Z,92.93
2018-02-20T03:12:20.919Z,87.93
2018-02-20T03:14:46.108Z,81.93
2018-02-20T03:16:47.164Z,81.12
2018-02-20T03:19:05.964Z,76.32
2018-02-20T03:21:06.995Z,85.85
2018-02-20T03:25:36.124Z,68.72
2018-02-20T03:28:04.949Z,73.35
2018-02-20T03:37:40.857Z,85.22
2018-02-20T03:39:41.860Z,68.30
2018-02-20T03:41:42.887Z,72.53
2018-02-20T03:46:23.398Z,82.53
2018-02-20T03:48:25.138Z,73.50
2018-02-20T03:55:35.425Z,80.68
2018-02-20T03:59:58.503Z,68.50
2018-02-20T04:02:00.313Z,76.80
2018-02-20T04:04:23.120Z,75.62
2018-02-20T04:11:00.843Z,79.78
2018-02-20T04:20:36.277Z,79.97
2018-02-20T04:22:37.856Z,78.68
2018-02-20T04:24:39.496Z,79.40
2018-02-20T04:45:06.936Z,83.68
2018-02-20T04:47:34.047Z,82.93
2018-02-20T04:52:04.570Z,74.60
2018-02-20T05:01:34.446Z,78.28
2018-02-20T05:03:48.744Z,96.00
2018-02-20T05:10:49.297Z,81.78
2018-02-20T05:20:11.492Z,81.68
2018-02-20T05:37:21.737Z,101.30
2018-02-20T05:39:24.232Z,88.03
2018-02-20T05:46:24.309Z,113.45
2018-02-20T05:48:37.860Z,85.40
2018-02-20T05:50:46.259Z,90.43
2018-02-20T06:11:03.551Z,89.05
2018-02-20T06:13:19.067Z,95.65
2018-02-20T06:15:20.356Z,78.43
2018-02-20T06:23:14.858Z,86.80
2018-02-20T06:25:20.719Z,91.20
2018-02-20T06:27:22.028Z,88.15
2018-02-20T06:29:23.291Z,90.32
2018-02-20T06:38:37.083Z,92.53
2018-02-20T06:40:44.064Z,85.82
2018-02-20T06:42:45.542Z,89.35
2018-02-20T06:44:47.785Z,79.30
2018-02-20T06:46:49.327Z,85.03
2018-02-20T06:48:50.831Z,83.50
2018-02-20T06:50:52.768Z,78.57
2018-02-20T06:55:24.908Z,220.57
2018-02-20T07:00:26.646Z,99.75
2018-02-20T07:02:34.438Z,133.15
2018-02-20T07:06:46.376Z,84.53
2018-02-20T07:13:43.365Z,95.55
2018-02-20T07:15:52.676Z,99.87
2018-02-20T07:20:22.557Z,95.95
2018-02-20T13:28:27.829Z,75.00
2018-02-20T13:30:29.732Z,70.70
2018-02-20T13:35:10.108Z,81.70
2018-02-20T13:49:53.567Z,75.10
2018-02-20T13:56:51.405Z,79.00
2018-02-20T14:03:49.062Z,83.00
2018-02-20T14:08:24.147Z,85.73
2018-02-20T14:12:54.735Z,78.53
2018-02-20T14:14:58.105Z,96.10
2018-02-20T14:16:59.503Z,86.65
2018-02-20T14:19:22.232Z,96.67
2018-02-20T14:43:44.607Z,102.37
2018-02-20T14:45:45.625Z,87.77
2018-02-20T14:47:46.647Z,98.10
2018-02-20T14:50:00.487Z,100.18
2018-02-20T14:52:01.517Z,94.70
2018-02-20T14:54:03.415Z,89.40
2018-02-20T14:56:04.796Z,89.30
2018-02-20T14:58:06.296Z,101.47
2018-02-20T15:00:07.965Z,86.00
2018-02-20T15:02:09.001Z,80.70
2018-02-20T15:04:09.975Z,106.63
2018-02-20T15:06:10.972Z,90.20
2018-02-20T15:08:14.170Z,90.28
2018-02-20T15:10:16.142Z,97.07
2018-02-20T15:12:17.307Z,83.63
2018-02-20T15:14:18.486Z,88.07
2018-02-20T15:16:33.000Z,94.23
2018-02-20T15:21:05.178Z,88.27
2018-02-20T15:23:23.559Z,85.10
2018-02-20T15:25:24.549Z,83.03
2018-02-20T15:27:25.552Z,83.17
2018-02-20T15:29:27.118Z,85.23
2018-02-20T15:31:28.697Z,91.00
2018-02-20T15:33:31.652Z,89.27
2018-02-20T15:38:10.041Z,81.83
2018-02-20T15:40:11.689Z,85.47
2018-02-20T15:42:12.707Z,81.43
2018-02-20T15:44:13.681Z,90.63
2018-02-20T15:46:14.677Z,90.80
2018-02-20T15:48:17.415Z,96.20
2018-02-20T15:55:13.438Z,89.90
2018-02-20T15:57:14.389Z,89.57
2018-02-20T15:59:15.389Z,92.80
2018-02-20T16:01:16.343Z,94.60
2018-02-20T16:03:17.306Z,92.53
2018-02-20T16:05:18.267Z,92.57
2018-02-20T16:07:19.203Z,95.00
2018-02-20T16:09:28.571Z,93.97
2018-02-20T16:11:29.558Z,93.37
2018-02-20T16:13:30.535Z,86.70
2018-02-20T16:15:38.628Z,95.75
2018-02-20T16:17:39.640Z,92.90
2018-02-20T16:19:40.656Z,97.13
2018-02-20T20:55:05.985Z,189.25
2018-02-20T20:57:30.687Z,167.57
2018-02-20T20:59:41.898Z,169.97
2018-02-20T21:01:43.487Z,156.43
2018-02-20T21:03:44.444Z,179.80
2018-02-20T21:05:45.529Z,176.37
2018-02-20T21:13:16.029Z,148.90
2018-02-20T21:15:18.341Z,161.73
2018-02-20T21:17:19.934Z,173.40
2018-02-20T21:19:22.290Z,168.63
2018-02-20T21:26:36.333Z,160.40
2018-02-20T21:28:37.984Z,166.97
2018-02-20T21:33:38.575Z,161.43
2018-02-20T21:35:42.457Z,155.20
2018-02-20T21:37:57.704Z,166.02
2018-02-20T21:42:11.928Z,163.70
2018-02-20T21:44:12.956Z,161.30
2018-02-20T21:46:38.885Z,164.80
2018-02-20T21:48:39.899Z,172.63
2018-02-20T21:50:40.915Z,161.37
2018-02-20T21:52:41.995Z,166.70
2018-02-20T21:55:08.252Z,163.63
2018-02-20T21:57:09.261Z,157.10
2018-02-20T22:04:41.341Z,148.68
2018-02-20T22:06:42.378Z,157.90
2018-02-20T22:08:43.371Z,137.30
2018-02-20T22:10:51.382Z,130.40
2018-02-20T22:12:52.475Z,139.47
2018-02-20T22:14:54.109Z,143.50
2018-02-20T22:16:55.160Z,152.35
2018-02-20T22:22:39.809Z,119.27
2018-02-20T22:24:41.590Z,156.43
2018-02-20T22:26:42.582Z,144.63
2018-02-20T22:28:43.565Z,144.13
2018-02-20T22:33:15.475Z,136.83
2018-02-20T22:35:16.503Z,138.82
2018-02-20T22:37:19.264Z,131.93
2018-02-20T22:39:20.342Z,129.90
2018-02-20T22:41:21.328Z,133.23
2018-02-20T22:43:44.829Z,130.45
2018-02-20T22:45:45.817Z,131.45
2018-02-20T22:48:14.466Z,121.60
2018-02-20T22:50:15.486Z,116.72
2018-02-20T22:54:44.736Z,120.85
2018-02-20T22:56:53.849Z,134.12
2018-02-20T22:58:54.969Z,134.50
2018-02-20T23:01:14.694Z,127.27
2018-02-20T23:09:53.839Z,112.40
2018-02-20T23:11:54.867Z,123.80
2018-02-20T23:14:14.450Z,124.25
2018-02-20T23:16:15.444Z,120.30
2018-02-20T23:23:14.937Z,112.20
2018-02-20T23:30:30.930Z,104.68
2018-02-20T23:32:32.113Z,117.18
2018-02-20T23:34:46.339Z,103.87
2018-02-20T23:36:47.340Z,105.22
2018-02-20T23:38:48.295Z,126.87
2018-02-20T23:40:58.660Z,121.67
2018-02-20T23:43:01.219Z,122.25
2018-02-20T23:45:21.982Z,116.05
2018-02-20T23:47:24.985Z,117.28
2018-02-20T23:49:27.223Z,100.15
2018-02-20T23:54:16.078Z,108.30
2018-02-20T23:56:19.645Z,97.78
2018-02-20T23:58:22.833Z,110.80
